Time;durP1;ratioP1;P1;durP2;ratioP2;P2;SDS_P1;SDS_P2;PMS_P1;PMS_P2;Temp;Humidity;BMP_temperature;BMP_pressure;BME280_temperature;BME280_humidity;BME280_pressure;Samples;Min_cycle;Max_cycle;Signal;HPM_P1;HPM_P2
2021/07/26 04:33:11;;;;;;;7.57;6.87;;;17.00;99.90;;;;;;4966500;23;20538;-76
2021/07/26 04:35:37;;;;;;;7.70;6.83;;;16.90;99.90;;;;;;4970231;28;20452;-76
2021/07/26 04:38:02;;;;;;;6.80;5.93;;;16.90;99.90;;;;;;4962228;28;20196;-74
2021/07/26 04:40:28;;;;;;;7.13;6.33;;;17.00;99.90;;;;;;4944654;29;20230;-77
2021/07/26 04:42:55;;;;;;;10.43;6.73;;;17.00;99.90;;;;;;4953034;28;20197;-76
2021/07/26 04:45:20;;;;;;;7.40;6.60;;;17.00;99.90;;;;;;4953054;28;20276;-77
2021/07/26 04:47:46;;;;;;;7.27;6.20;;;17.10;99.90;;;;;;4953273;29;20466;-78
2021/07/26 04:50:11;;;;;;;8.80;6.50;;;17.10;99.90;;;;;;4953240;29;20674;-75
2021/07/26 04:52:38;;;;;;;7.90;6.77;;;17.20;99.90;;;;;;4952702;28;20299;-77
2021/07/26 04:55:04;;;;;;;8.40;6.50;;;17.30;99.90;;;;;;4953043;28;20196;-76
2021/07/26 04:57:30;;;;;;;6.43;5.60;;;17.30;99.90;;;;;;4950760;28;20507;-76
2021/07/26 04:59:55;;;;;;;7.80;6.30;;;17.40;99.90;;;;;;4951879;29;20416;-77
2021/07/26 05:02:21;;;;;;;7.63;6.67;;;17.40;99.90;;;;;;4952922;28;20189;-77
2021/07/26 05:04:46;;;;;;;6.80;5.87;;;17.50;99.90;;;;;;4953129;28;20686;-77
2021/07/26 05:07:12;;;;;;;12.30;6.03;;;17.50;99.90;;;;;;4952813;28;20188;-72
2021/07/26 05:09:38;;;;;;;8.83;7.83;;;17.60;99.90;;;;;;4952846;29;20180;-72
2021/07/26 05:12:07;;;;;;;7.27;5.63;;;17.60;99.90;;;;;;4952766;28;20312;-72
2021/07/26 05:14:32;;;;;;;7.50;6.47;;;17.60;99.90;;;;;;4954552;28;20503;-71
2021/07/26 05:16:58;;;;;;;9.63;6.90;;;17.60;99.90;;;;;;4956720;29;20857;-73
2021/07/26 05:19:23;;;;;;;6.30;5.33;;;17.60;99.90;;;;;;4956517;29;20177;-72
2021/07/26 05:21:49;;;;;;;7.40;6.03;;;17.60;99.90;;;;;;4956627;28;20325;-73
2021/07/26 05:24:15;;;;;;;10.20;6.90;;;17.70;99.90;;;;;;4956651;28;20646;-72
2021/07/26 05:26:40;;;;;;;7.00;6.30;;;17.70;99.90;;;;;;4955256;29;20657;-75
2021/07/26 05:29:06;;;;;;;11.07;6.47;;;17.70;99.90;;;;;;4956491;28;20385;-73
2021/07/26 05:31:31;;;;;;;9.73;6.60;;;17.80;99.90;;;;;;4956265;28;20267;-75
2021/07/26 05:33:57;;;;;;;11.40;6.13;;;17.90;99.90;;;;;;4956692;29;20207;-72
2021/07/26 05:36:25;;;;;;;7.10;5.90;;;18.10;99.90;;;;;;4956287;29;20173;-72
2021/07/26 05:38:52;;;;;;;12.40;6.80;;;18.50;99.90;;;;;;4955227;29;20606;-73
2021/07/26 05:41:17;;;;;;;5.70;4.80;;;18.60;99.90;;;;;;4956487;28;20443;-73
2021/07/26 05:43:43;;;;;;;9.20;5.03;;;18.70;99.90;;;;;;4956249;29;20747;-73
2021/07/26 05:46:09;;;;;;;10.70;5.27;;;18.90;99.90;;;;;;4956401;28;20203;-74
2021/07/26 05:48:34;;;;;;;5.97;4.73;;;19.20;99.90;;;;;;4954853;29;20436;-73
2021/07/26 05:51:00;;;;;;;9.50;4.50;;;19.60;99.90;;;;;;4954890;28;20649;-78
2021/07/26 05:53:25;;;;;;;8.37;4.30;;;19.90;99.90;;;;;;4954653;29;20267;-78
2021/07/26 05:55:51;;;;;;;9.27;4.50;;;20.50;99.90;;;;;;4956188;29;20177;-77
2021/07/26 05:58:17;;;;;;;5.20;4.70;;;20.90;99.90;;;;;;4955902;29;20311;-77
2021/07/26 06:00:45;;;;;;;5.00;3.70;;;21.40;99.90;;;;;;4956204;28;20180;-78
2021/07/26 06:03:11;;;;;;;5.00;4.27;;;21.50;99.90;;;;;;4955915;29;20180;-77
2021/07/26 06:05:36;;;;;;;7.10;4.80;;;21.40;99.90;;;;;;4956077;29;20416;-78
2021/07/26 06:08:02;;;;;;;4.67;4.27;;;21.50;99.90;;;;;;4955713;28;20180;-77
2021/07/26 06:10:28;;;;;;;8.40;4.90;;;21.70;99.90;;;;;;4955509;29;20255;-77
2021/07/26 06:12:55;;;;;;;5.43;4.13;;;21.90;99.90;;;;;;4955798;28;20440;-78
2021/07/26 06:15:21;;;;;;;6.63;4.13;;;22.10;99.90;;;;;;4955709;28;20416;-78
2021/07/26 06:17:47;;;;;;;7.00;4.40;;;22.40;99.90;;;;;;4955551;28;20851;-78
2021/07/26 06:20:13;;;;;;;4.10;3.67;;;22.60;99.90;;;;;;4955592;28;20413;-77
2021/07/26 06:22:39;;;;;;;7.23;4.50;;;22.70;99.90;;;;;;4955080;28;20447;-77
2021/07/26 06:25:09;;;;;;;4.53;4.13;;;22.70;99.90;;;;;;4954624;28;20444;-77
2021/07/26 06:27:38;;;;;;;4.27;3.97;;;22.80;99.90;;;;;;4954767;28;20176;-77
2021/07/26 06:30:04;;;;;;;8.93;4.33;;;22.90;99.90;;;;;;4955535;29;20475;-76
2021/07/26 06:32:31;;;;;;;9.33;4.47;;;22.90;99.90;;;;;;4955094;28;20468;-77
2021/07/26 06:34:58;;;;;;;7.63;3.80;;;23.00;99.90;;;;;;4955111;29;20408;-77
2021/07/26 06:37:24;;;;;;;5.40;3.97;;;23.20;99.90;;;;;;4955398;28;20417;-77
2021/07/26 06:39:49;;;;;;;4.63;4.20;;;23.40;99.90;;;;;;4954696;29;20818;-77
2021/07/26 06:42:15;;;;;;;4.27;3.87;;;23.50;99.90;;;;;;4955251;28;20539;-78
2021/07/26 06:44:41;;;;;;;6.50;3.60;;;23.70;99.90;;;;;;4955396;29;20177;-77
2021/07/26 06:47:06;;;;;;;4.83;3.90;;;24.00;99.90;;;;;;4954993;29;20192;-77
2021/07/26 06:49:32;;;;;;;4.40;3.67;;;24.10;99.90;;;;;;4955241;29;20188;-77
2021/07/26 06:51:58;;;;;;;4.33;3.13;;;24.40;99.90;;;;;;4955089;28;20213;-77
2021/07/26 06:54:24;;;;;;;5.70;3.80;;;24.60;99.90;;;;;;4953849;29;20515;-78
2021/07/26 06:56:49;;;;;;;4.03;3.30;;;24.60;99.90;;;;;;4955438;29;20173;-77
2021/07/26 06:59:15;;;;;;;5.13;2.63;;;24.50;99.90;;;;;;4956096;28;20169;-77
2021/07/26 07:01:42;;;;;;;3.10;2.90;;;24.50;99.90;;;;;;4955861;28;20283;-77
2021/07/26 07:04:07;;;;;;;9.90;3.30;;;24.80;99.90;;;;;;4955260;28;20179;-77
2021/07/26 07:06:33;;;;;;;5.63;3.23;;;25.00;99.90;;;;;;4954755;29;20428;-78
2021/07/26 07:08:58;;;;;;;3.10;2.90;;;25.10;99.90;;;;;;4955030;28;20173;-78
2021/07/26 07:11:24;;;;;;;3.33;2.90;;;25.30;99.90;;;;;;4954646;28;20219;-78
2021/07/26 07:13:51;;;;;;;5.17;2.90;;;25.30;99.90;;;;;;4955779;28;20200;-77
2021/07/26 07:16:19;;;;;;;3.13;2.93;;;25.40;99.90;;;;;;4954044;29;20424;-75
2021/07/26 07:18:46;;;;;;;2.90;2.60;;;25.70;99.90;;;;;;4954864;28;20471;-78
2021/07/26 07:21:19;;;;;;;6.10;2.70;;;26.00;99.90;;;;;;4954558;28;20425;-76
2021/07/26 07:23:45;;;;;;;2.40;2.20;;;26.30;99.90;;;;;;4940934;29;21139;-78
2021/07/26 07:26:11;;;;;;;3.20;3.00;;;26.50;99.90;;;;;;4939068;29;20417;-78
2021/07/26 07:28:37;;;;;;;2.30;2.20;;;26.60;99.90;;;;;;4937965;29;20798;-79
2021/07/26 07:31:02;;;;;;;3.70;2.67;;;26.80;99.90;;;;;;4935184;29;20216;-78
2021/07/26 07:33:28;;;;;;;3.57;2.70;;;26.80;99.90;;;;;;4935305;29;20178;-78
2021/07/26 07:35:53;;;;;;;2.83;2.43;;;27.10;99.90;;;;;;4933641;29;20181;-78
2021/07/26 07:38:19;;;;;;;2.10;2.00;;;26.90;99.90;;;;;;4934678;29;20176;-79
2021/07/26 07:40:45;;;;;;;2.80;2.60;;;27.30;99.90;;;;;;4934261;29;20276;-78
2021/07/26 07:43:10;;;;;;;4.33;2.47;;;27.50;99.90;;;;;;4935818;29;20178;-76
2021/07/26 07:45:36;;;;;;;3.30;3.00;;;27.60;99.90;;;;;;4936012;29;20209;-78
2021/07/26 07:48:01;;;;;;;4.10;2.50;;;27.70;99.90;;;;;;4935240;29;20181;-78
2021/07/26 07:50:28;;;;;;;2.80;2.60;;;27.80;99.90;;;;;;4929950;29;20245;-78
2021/07/26 07:52:53;;;;;;;3.80;3.13;;;27.50;99.90;;;;;;4926267;29;20207;-78
2021/07/26 07:55:20;;;;;;;6.87;2.77;;;27.40;99.90;;;;;;4934550;29;20508;-78
2021/07/26 07:57:48;;;;;;;2.33;2.20;;;26.90;99.90;;;;;;4935318;29;20208;-77
2021/07/26 08:00:16;;;;;;;2.97;2.77;;;26.40;99.90;;;;;;4934988;29;20420;-76
2021/07/26 08:02:41;;;;;;;4.20;3.47;;;26.40;99.90;;;;;;4919510;29;20497;-78
2021/07/26 08:05:07;;;;;;;5.53;5.03;;;26.60;99.90;;;;;;4916140;29;20418;-78
2021/07/26 08:07:34;;;;;;;4.13;3.07;;;27.00;99.90;;;;;;4916122;29;20727;-78
2021/07/26 08:09:59;;;;;;;3.80;2.90;;;27.50;99.90;;;;;;4916251;29;20924;-78
2021/07/26 08:12:25;;;;;;;3.20;3.00;;;27.80;99.90;;;;;;4915733;29;20470;-78
2021/07/26 08:14:51;;;;;;;7.17;2.90;;;28.10;99.90;;;;;;4916593;29;20182;-78
2021/07/26 08:17:16;;;;;;;3.30;3.07;;;28.00;99.90;;;;;;4915869;29;20178;-78
2021/07/26 08:19:41;;;;;;;8.57;2.53;;;28.10;99.90;;;;;;4916021;29;20184;-78
2021/07/26 08:22:07;;;;;;;4.03;3.73;;;27.90;99.90;;;;;;4914724;29;20556;-78
2021/07/26 08:24:33;;;;;;;8.00;3.20;;;27.90;99.90;;;;;;4915458;29;20174;-78
2021/07/26 08:26:58;;;;;;;7.47;2.77;;;28.10;99.90;;;;;;4915567;29;20186;-77
2021/07/26 08:29:24;;;;;;;3.23;3.03;;;28.50;99.90;;;;;;4915269;29;20190;-78
2021/07/26 08:31:49;;;;;;;3.30;2.90;;;28.80;99.90;;;;;;4915400;29;20602;-78
2021/07/26 08:34:15;;;;;;;5.67;3.83;;;28.80;99.90;;;;;;4915198;29;20178;-76
2021/07/26 08:36:40;;;;;;;3.83;3.30;;;28.40;99.90;;;;;;4915061;29;20264;-78
2021/07/26 08:39:06;;;;;;;3.03;2.83;;;27.90;99.90;;;;;;4913932;29;20205;-77
2021/07/26 08:41:31;;;;;;;3.20;2.90;;;27.70;99.90;;;;;;4915006;29;20202;-77
2021/07/26 08:43:57;;;;;;;2.87;2.67;;;27.90;99.90;;;;;;4915342;29;20193;-77
2021/07/26 08:46:25;;;;;;;6.07;3.27;;;27.90;99.90;;;;;;4914707;29;20209;-77
2021/07/26 08:48:50;;;;;;;4.40;3.33;;;27.70;99.90;;;;;;4914373;29;20175;-77
2021/07/26 08:51:20;;;;;;;4.57;3.37;;;27.80;99.90;;;;;;4912251;29;21055;-77
2021/07/26 08:53:51;;;;;;;2.80;2.60;;;28.10;99.90;;;;;;4914823;29;20178;-77
2021/07/26 08:56:20;;;;;;;3.70;2.67;;;28.60;99.90;;;;;;4913849;29;20949;-77
2021/07/26 08:58:46;;;;;;;4.97;3.63;;;29.00;99.90;;;;;;4914950;29;20425;-77
2021/07/26 09:01:13;;;;;;;5.90;3.30;;;29.10;99.90;;;;;;4915333;29;20470;-76
2021/07/26 09:03:39;;;;;;;3.57;3.13;;;29.00;99.90;;;;;;4914974;29;20418;-77
2021/07/26 09:06:05;;;;;;;6.23;3.47;;;29.30;99.90;;;;;;4915100;29;20511;-76
2021/07/26 09:08:38;;;;;;;9.30;3.40;;;29.10;99.90;;;;;;4914822;29;20509;-77
2021/07/26 09:11:05;;;;;;;4.97;3.00;;;29.30;99.90;;;;;;4915330;29;20229;-78
2021/07/26 09:13:39;;;;;;;3.93;3.50;;;29.00;99.90;;;;;;4914801;29;20468;-78
2021/07/26 09:16:19;;;;;;;6.67;3.40;;;29.00;99.90;;;;;;4915803;29;20432;-78
2021/07/26 09:18:47;;;;;;;4.50;3.60;;;29.40;99.90;;;;;;4915081;29;20766;-78
2021/07/26 09:21:13;;;;;;;3.20;2.90;;;29.60;99.90;;;;;;4915109;29;20445;-78
2021/07/26 09:24:02;;;;;;;3.83;3.40;;;30.10;99.90;;;;;;4915407;29;20450;-77
2021/07/26 09:26:28;;;;;;;2.70;2.50;;;30.90;99.90;;;;;;4915119;29;20414;-78
2021/07/26 09:28:53;;;;;;;5.47;2.60;;;31.20;99.90;;;;;;4914997;29;20422;-78
2021/07/26 09:31:19;;;;;;;2.80;2.57;;;30.40;99.90;;;;;;4915138;29;20226;-79
2021/07/26 09:33:44;;;;;;;3.27;2.87;;;30.70;99.90;;;;;;4916385;29;20621;-79
2021/07/26 09:36:21;;;;;;;2.30;2.20;;;30.80;99.90;;;;;;4914702;29;20175;-75
2021/07/26 09:38:46;;;;;;;5.97;3.50;;;31.10;99.90;;;;;;4913424;29;20201;-78
2021/07/26 09:41:12;;;;;;;3.30;2.70;;;31.50;99.90;;;;;;4914576;29;20481;-77
2021/07/26 09:43:38;;;;;;;5.80;2.63;;;32.20;99.90;;;;;;4915151;29;20182;-78
2021/07/26 09:46:04;;;;;;;3.70;3.40;;;32.40;99.90;;;;;;4914797;29;20209;-76
2021/07/26 09:48:32;;;;;;;3.30;3.10;;;32.10;99.90;;;;;;4914567;29;20820;-77
2021/07/26 09:51:00;;;;;;;3.47;3.17;;;31.60;99.90;;;;;;4914762;29;20612;-77
2021/07/26 09:53:27;;;;;;;6.80;3.20;;;32.00;99.90;;;;;;4914459;29;20534;-77
2021/07/26 09:55:55;;;;;;;3.60;2.67;;;32.10;99.90;;;;;;4915242;29;20422;-78
2021/07/26 09:58:37;;;;;;;3.37;2.93;;;32.50;99.90;;;;;;4913885;29;20939;-79
2021/07/26 10:01:05;;;;;;;3.40;3.20;;;32.50;99.90;;;;;;4917249;29;20951;-78
2021/07/26 10:03:31;;;;;;;2.80;2.70;;;32.60;99.90;;;;;;4917929;29;20525;-75
2021/07/26 10:05:57;;;;;;;5.50;3.20;;;33.20;99.90;;;;;;4918477;29;20497;-76
2021/07/26 10:08:23;;;;;;;2.33;2.23;;;33.20;99.90;;;;;;4917537;29;20182;-78
2021/07/26 10:10:48;;;;;;;3.10;2.60;;;32.40;99.90;;;;;;4917604;29;20468;-77
2021/07/26 10:13:18;;;;;;;4.00;2.30;;;32.90;99.90;;;;;;4917773;29;20201;-77
2021/07/26 10:15:43;;;;;;;3.00;2.00;;;33.20;99.90;;;;;;4917419;29;20617;-77
2021/07/26 10:18:09;;;;;;;3.07;2.87;;;33.70;99.90;;;;;;4917559;29;20418;-77
2021/07/26 10:20:49;;;;;;;3.47;2.80;;;34.10;99.90;;;;;;4916035;29;20185;-77
2021/07/26 10:23:39;;;;;;;3.07;2.77;;;33.40;99.90;;;;;;4917053;29;20238;-76
2021/07/26 10:26:07;;;;;;;2.67;2.47;;;33.20;99.90;;;;;;4916509;29;20471;-77
2021/07/26 10:28:34;;;;;;;3.03;2.83;;;32.30;99.90;;;;;;4916809;29;20434;-76
2021/07/26 10:30:59;;;;;;;3.27;3.00;;;31.60;99.90;;;;;;4917069;29;21059;-77
2021/07/26 10:33:25;;;;;;;3.80;2.77;;;31.40;99.90;;;;;;4917419;29;20794;-77
2021/07/26 10:35:55;;;;;;;2.70;2.50;;;31.50;99.90;;;;;;4917411;29;20261;-76
2021/07/26 10:38:43;;;;;;;3.70;3.13;;;31.70;99.90;;;;;;4917361;29;20771;-76
2021/07/26 10:41:09;;;;;;;4.43;2.70;;;31.00;99.90;;;;;;4916267;29;20807;-77
2021/07/26 10:43:55;;;;;;;3.33;2.63;;;30.20;99.90;;;;;;4915786;29;20444;-76
2021/07/26 10:46:21;;;;;;;3.53;2.73;;;30.30;99.90;;;;;;4916219;29;20192;-77
2021/07/26 10:48:50;;;;;;;2.97;2.73;;;30.50;99.90;;;;;;4916861;29;20414;-77
2021/07/26 10:51:36;;;;;;;6.23;2.60;;;30.40;99.90;;;;;;4917552;29;20524;-77
2021/07/26 10:54:01;;;;;;;5.07;2.87;;;30.90;99.90;;;;;;4917776;29;20410;-77
2021/07/26 10:56:27;;;;;;;3.33;2.70;;;31.40;99.90;;;;;;4917109;29;20873;-76
2021/07/26 10:59:00;;;;;;;4.57;3.00;;;31.50;99.90;;;;;;4917064;29;20175;-77
2021/07/26 11:01:26;;;;;;;3.17;2.40;;;31.60;99.90;;;;;;4916989;29;20315;-77
2021/07/26 11:04:00;;;;;;;6.53;3.07;;;31.30;99.90;;;;;;4916789;29;20440;-76
2021/07/26 11:06:38;;;;;;;2.80;2.60;;;31.40;99.90;;;;;;4917228;29;20594;-73
2021/07/26 11:09:38;;;;;;;2.13;2.00;;;31.30;99.90;;;;;;4915490;29;20789;-76
2021/07/26 11:12:04;;;;;;;3.47;3.17;;;31.90;99.90;;;;;;4916099;29;20458;-75
2021/07/26 11:14:29;;;;;;;3.30;2.87;;;31.80;99.90;;;;;;4916739;29;20422;-76
2021/07/26 11:17:03;;;;;;;3.67;3.37;;;31.00;99.90;;;;;;4916552;29;20186;-76
2021/07/26 11:19:29;;;;;;;3.50;3.20;;;30.10;99.90;;;;;;4915063;29;20230;-75
2021/07/26 11:21:55;;;;;;;3.17;2.60;;;29.60;99.90;;;;;;4935227;29;20490;-75
2021/07/26 11:24:39;;;;;;;3.03;2.83;;;29.30;99.90;;;;;;4938446;28;20915;-74
2021/07/26 11:27:05;;;;;;;3.40;2.97;;;28.80;99.90;;;;;;4934926;29;20215;-74
2021/07/26 11:29:31;;;;;;;3.33;2.63;;;28.60;99.90;;;;;;4933654;29;20457;-77
2021/07/26 11:31:57;;;;;;;3.13;2.93;;;28.70;99.90;;;;;;4934694;29;20477;-74
2021/07/26 11:34:28;;;;;;;2.90;2.70;;;29.10;99.90;;;;;;4935115;29;20413;-75
2021/07/26 11:37:13;;;;;;;3.07;2.77;;;29.70;99.90;;;;;;4935278;29;20410;-77
2021/07/26 11:39:53;;;;;;;3.37;2.23;;;29.90;99.90;;;;;;4935068;29;20405;-75
2021/07/26 11:42:39;;;;;;;2.90;2.50;;;29.90;99.90;;;;;;4934766;29;20903;-74
2021/07/26 11:45:17;;;;;;;4.40;2.87;;;29.60;99.90;;;;;;4934794;29;20431;-74
2021/07/26 11:47:56;;;;;;;2.80;2.60;;;29.10;99.90;;;;;;4934511;29;20413;-77
2021/07/26 11:50:40;;;;;;;3.17;2.97;;;28.50;99.90;;;;;;4934497;29;20420;-73
2021/07/26 11:53:06;;;;;;;2.80;2.50;;;27.60;99.90;;;;;;4934707;29;20424;-76
2021/07/26 11:55:34;;;;;;;9.37;3.30;;;27.10;99.90;;;;;;4934385;29;20763;-77
2021/07/26 11:58:02;;;;;;;4.90;3.00;;;26.50;99.90;;;;;;4934559;29;20397;-77
2021/07/26 12:00:31;;;;;;;5.00;4.00;;;26.20;99.90;;;;;;4934282;29;20418;-76
2021/07/26 12:02:57;;;;;;;4.37;2.53;;;25.90;99.90;;;;;;4934476;29;21025;-77
2021/07/26 12:05:31;;;;;;;5.73;3.23;;;25.70;99.90;;;;;;4934097;29;20405;-75
2021/07/26 12:07:58;;;;;;;3.30;3.10;;;25.50;99.90;;;;;;4934216;29;20412;-77
2021/07/26 12:10:33;;;;;;;5.83;3.20;;;25.30;99.90;;;;;;4934240;29;20947;-76
2021/07/26 12:13:09;;;;;;;3.50;2.80;;;25.10;99.90;;;;;;4934359;29;20445;-73
2021/07/26 12:15:36;;;;;;;3.37;3.07;;;25.10;99.90;;;;;;4934158;29;20408;-76
2021/07/26 12:18:09;;;;;;;2.40;2.20;;;24.90;99.90;;;;;;4933957;29;20938;-75
2021/07/26 12:20:40;;;;;;;3.33;3.03;;;24.80;99.90;;;;;;4933938;29;20759;-77
2021/07/26 12:23:28;;;;;;;3.93;2.90;;;24.70;99.90;;;;;;4933671;29;20413;-77
2021/07/26 12:26:10;;;;;;;3.57;2.97;;;24.60;99.90;;;;;;4934678;29;20406;-77
2021/07/26 12:28:49;;;;;;;6.93;3.07;;;24.50;99.90;;;;;;4933582;29;20409;-76
2021/07/26 12:31:32;;;;;;;3.87;2.40;;;24.50;99.90;;;;;;4933849;29;20563;-76
2021/07/26 12:34:23;;;;;;;4.63;3.20;;;24.40;99.90;;;;;;4933831;29;20789;-74
2021/07/26 12:36:49;;;;;;;3.70;3.13;;;24.40;99.90;;;;;;4933728;29;20405;-76
2021/07/26 12:39:17;;;;;;;3.27;2.97;;;24.40;99.90;;;;;;4933891;29;20460;-76
2021/07/26 12:41:50;;;;;;;5.03;2.40;;;24.30;99.90;;;;;;4933916;29;20445;-74
2021/07/26 12:44:25;;;;;;;4.80;3.00;;;24.30;99.90;;;;;;4934077;29;20441;-77
2021/07/26 12:46:51;;;;;;;6.73;3.50;;;24.40;99.90;;;;;;4933945;29;20428;-76
2021/07/26 12:49:19;;;;;;;3.27;3.07;;;24.30;99.90;;;;;;4933872;29;20419;-77
2021/07/26 12:51:45;;;;;;;3.03;2.43;;;24.40;99.90;;;;;;4933573;29;20300;-76
2021/07/26 12:54:11;;;;;;;6.40;2.30;;;24.50;99.90;;;;;;4934191;29;20489;-74
2021/07/26 12:56:36;;;;;;;3.73;2.70;;;24.40;99.90;;;;;;4933679;29;20861;-76
2021/07/26 12:59:02;;;;;;;2.90;2.50;;;24.30;99.90;;;;;;4934002;29;20181;-73
2021/07/26 13:01:28;;;;;;;5.83;3.83;;;24.30;99.90;;;;;;4932505;29;20236;-75
2021/07/26 13:03:54;;;;;;;2.83;2.63;;;24.30;99.90;;;;;;4933780;29;20189;-77
2021/07/26 13:06:20;;;;;;;2.77;2.57;;;24.30;99.90;;;;;;4933981;29;20889;-76
2021/07/26 13:08:45;;;;;;;3.87;2.93;;;24.30;99.90;;;;;;4933431;29;20193;-77
2021/07/26 13:11:10;;;;;;;2.60;2.40;;;24.30;99.90;;;;;;4934384;29;20892;-76
2021/07/26 13:13:38;;;;;;;3.00;2.07;;;24.30;99.90;;;;;;4933474;29;20208;-76
2021/07/26 13:16:04;;;;;;;3.33;2.77;;;24.20;99.90;;;;;;4934454;29;20253;-78
2021/07/26 13:18:29;;;;;;;2.77;2.40;;;24.10;99.90;;;;;;4934296;29;20627;-77
2021/07/26 13:20:55;;;;;;;2.30;2.17;;;24.10;99.90;;;;;;4935065;29;21251;-77
2021/07/26 13:23:20;;;;;;;3.60;2.07;;;24.00;99.90;;;;;;4934631;29;20182;-78
2021/07/26 13:25:46;;;;;;;4.00;3.00;;;23.90;99.90;;;;;;4934714;29;20249;-77
2021/07/26 13:28:13;;;;;;;2.20;2.00;;;23.80;99.90;;;;;;4934352;29;20181;-77
2021/07/26 13:30:38;;;;;;;3.60;2.40;;;23.80;99.90;;;;;;4934534;29;20181;-76
2021/07/26 13:33:05;;;;;;;2.90;2.10;;;23.90;99.90;;;;;;4934031;29;20504;-76
2021/07/26 13:35:30;;;;;;;2.83;2.47;;;24.10;99.90;;;;;;4935293;29;20591;-76
2021/07/26 13:37:56;;;;;;;2.70;2.60;;;24.30;99.90;;;;;;4938521;29;20421;-75
2021/07/26 13:40:22;;;;;;;5.93;2.70;;;24.40;99.90;;;;;;4937348;29;20199;-77
2021/07/26 13:42:49;;;;;;;3.67;2.20;;;24.60;99.90;;;;;;4939269;29;20237;-78
2021/07/26 13:45:15;;;;;;;3.13;2.87;;;24.60;99.90;;;;;;4938805;29;20423;-78
2021/07/26 13:47:41;;;;;;;3.20;2.87;;;24.30;99.90;;;;;;4938373;29;20196;-78
2021/07/26 13:50:08;;;;;;;4.27;2.73;;;24.20;99.90;;;;;;4937396;29;20185;-74
2021/07/26 13:52:36;;;;;;;3.87;2.97;;;23.90;99.90;;;;;;4936902;29;20212;-73
2021/07/26 13:55:05;;;;;;;3.47;3.13;;;23.70;99.90;;;;;;4937587;29;20417;-73
2021/07/26 13:57:31;;;;;;;7.53;4.27;;;23.40;99.90;;;;;;4936895;29;20417;-75
2021/07/26 13:59:57;;;;;;;3.03;2.60;;;22.90;99.90;;;;;;4937154;29;20417;-71
2021/07/26 14:02:22;;;;;;;6.53;3.60;;;22.80;99.90;;;;;;4935788;29;20523;-73
2021/07/26 14:04:48;;;;;;;6.20;3.00;;;22.60;99.90;;;;;;4936873;29;20195;-73
2021/07/26 14:07:15;;;;;;;4.00;3.00;;;22.50;99.90;;;;;;4935519;29;20646;-73
2021/07/26 14:09:40;;;;;;;3.73;2.50;;;22.30;99.90;;;;;;4936571;29;20326;-73
2021/07/26 14:12:06;;;;;;;2.57;2.37;;;22.20;99.90;;;;;;4936703;29;20551;-71
2021/07/26 14:14:32;;;;;;;2.37;2.20;;;22.10;99.90;;;;;;4941406;29;20339;-73
2021/07/26 14:16:58;;;;;;;2.73;2.53;;;22.10;99.90;;;;;;4936382;29;20915;-71
2021/07/26 14:19:26;;;;;;;2.97;2.10;;;22.00;99.90;;;;;;4936290;29;20205;-70
2021/07/26 14:21:52;;;;;;;2.77;2.57;;;21.80;99.90;;;;;;4936294;29;20503;-74
2021/07/26 14:24:18;;;;;;;4.93;4.10;;;21.80;99.90;;;;;;4936088;29;20429;-72
2021/07/26 14:26:44;;;;;;;2.73;2.30;;;21.80;99.90;;;;;;4936236;29;20425;-74
2021/07/26 14:29:10;;;;;;;1.97;1.83;;;21.80;99.90;;;;;;4934340;29;20186;-74
2021/07/26 14:31:36;;;;;;;4.73;2.07;;;21.60;99.90;;;;;;4935900;29;20260;-71
2021/07/26 14:34:02;;;;;;;2.40;2.20;;;21.60;99.90;;;;;;4936424;29;20449;-74
2021/07/26 14:36:28;;;;;;;11.87;3.70;;;21.40;99.90;;;;;;4934652;29;20432;-75
2021/07/26 14:38:54;;;;;;;5.77;3.73;;;21.30;99.90;;;;;;4936283;29;20440;-74
2021/07/26 14:41:19;;;;;;;5.67;2.30;;;21.00;99.90;;;;;;4935948;29;20946;-73
2021/07/26 14:43:46;;;;;;;14.40;3.07;;;20.70;99.90;;;;;;4935781;29;20188;-74
2021/07/26 14:46:13;;;;;;;4.83;2.83;;;20.50;99.90;;;;;;4935345;29;20181;-75
2021/07/26 14:48:40;;;;;;;4.97;3.17;;;20.20;99.90;;;;;;4935474;29;20440;-72
2021/07/26 14:51:05;;;;;;;3.73;3.37;;;20.00;99.90;;;;;;4935827;29;20501;-76
2021/07/26 14:53:31;;;;;;;5.70;3.13;;;19.80;99.90;;;;;;4936150;29;20471;-73
2021/07/26 14:55:59;;;;;;;3.37;3.17;;;19.60;99.90;;;;;;4936175;29;20550;-73
2021/07/26 14:58:25;;;;;;;9.70;4.70;;;19.50;99.90;;;;;;4935436;29;20193;-75
2021/07/26 15:00:50;;;;;;;6.67;3.77;;;19.40;99.90;;;;;;4935887;29;20441;-74
2021/07/26 15:03:16;;;;;;;8.47;4.33;;;19.20;99.90;;;;;;4935919;29;20462;-71
2021/07/26 15:05:41;;;;;;;4.60;4.20;;;19.20;99.90;;;;;;4935763;29;20251;-74
2021/07/26 15:08:07;;;;;;;5.33;4.17;;;19.10;99.90;;;;;;4935512;29;20184;-74
2021/07/26 15:10:32;;;;;;;7.20;4.67;;;19.00;99.90;;;;;;4935287;29;20185;-74
2021/07/26 15:12:59;;;;;;;5.47;4.00;;;18.90;99.90;;;;;;4935582;29;20232;-73
2021/07/26 15:15:25;;;;;;;9.47;4.90;;;18.80;99.90;;;;;;4935468;29;20233;-75
2021/07/26 15:17:51;;;;;;;7.43;4.70;;;18.80;99.90;;;;;;4934045;29;20433;-77
2021/07/26 15:20:16;;;;;;;7.07;4.53;;;18.80;99.90;;;;;;4935159;29;20432;-78
2021/07/26 15:22:42;;;;;;;6.20;4.00;;;18.70;99.90;;;;;;4936362;29;20269;-76
2021/07/26 15:25:08;;;;;;;4.87;3.30;;;18.60;99.90;;;;;;4936929;29;20188;-78
2021/07/26 15:27:34;;;;;;;4.23;3.83;;;18.50;99.90;;;;;;4936139;29;20602;-76
2021/07/26 15:29:59;;;;;;;4.90;3.63;;;18.50;99.90;;;;;;4935330;29;20461;-78
2021/07/26 15:32:25;;;;;;;3.93;3.17;;;18.40;99.90;;;;;;4935290;29;20221;-78
2021/07/26 15:34:51;;;;;;;3.77;3.50;;;18.40;99.90;;;;;;4938336;29;20209;-80
2021/07/26 15:37:19;;;;;;;5.57;3.40;;;18.40;99.90;;;;;;4940209;29;20213;-79
2021/07/26 15:39:45;;;;;;;4.43;4.00;;;18.30;99.90;;;;;;4939481;29;20437;-79
2021/07/26 15:42:10;;;;;;;7.20;3.30;;;18.20;99.90;;;;;;4938072;29;20477;-79
2021/07/26 15:44:36;;;;;;;8.83;3.30;;;18.10;99.90;;;;;;4935369;29;20193;-75
2021/07/26 15:47:02;;;;;;;5.07;3.23;;;18.10;99.90;;;;;;4935000;29;20655;-76
2021/07/26 15:49:27;;;;;;;3.93;3.53;;;18.20;99.90;;;;;;4935058;29;20643;-77
2021/07/26 15:51:55;;;;;;;5.53;2.73;;;18.20;99.90;;;;;;4935196;29;20260;-78
2021/07/26 15:54:21;;;;;;;5.50;3.50;;;18.20;99.90;;;;;;4935258;29;20185;-77
2021/07/26 15:56:46;;;;;;;3.20;3.00;;;18.20;99.90;;;;;;4935275;29;20941;-77
2021/07/26 15:59:12;;;;;;;4.70;3.50;;;18.30;99.90;;;;;;4934655;29;20519;-77
2021/07/26 16:01:38;;;;;;;3.60;3.30;;;18.40;99.90;;;;;;4933719;29;20209;-77
2021/07/26 16:04:04;;;;;;;3.93;3.30;;;18.50;99.90;;;;;;4935056;29;20252;-77
2021/07/26 16:06:35;;;;;;;2.77;2.57;;;18.60;99.90;;;;;;4933567;29;20178;-77
2021/07/26 16:09:01;;;;;;;3.60;3.40;;;18.60;99.90;;;;;;4934925;29;20421;-78
2021/07/26 16:11:27;;;;;;;4.20;3.50;;;18.60;99.90;;;;;;4935231;29;20500;-78
2021/07/26 16:13:52;;;;;;;4.70;2.90;;;18.50;99.90;;;;;;4935427;29;20445;-78
2021/07/26 16:16:18;;;;;;;4.80;3.50;;;18.60;99.90;;;;;;4934853;29;20553;-78
2021/07/26 16:18:43;;;;;;;3.63;3.33;;;18.60;99.90;;;;;;4935230;29;20181;-79
2021/07/26 16:21:10;;;;;;;4.40;2.80;;;18.60;99.90;;;;;;4934809;29;20205;-77
2021/07/26 16:23:36;;;;;;;3.80;3.27;;;18.60;99.90;;;;;;4934679;29;20619;-76
2021/07/26 16:26:05;;;;;;;3.87;2.83;;;18.60;99.90;;;;;;4934421;29;20493;-77
2021/07/26 16:28:31;;;;;;;7.13;3.50;;;18.70;99.90;;;;;;4934237;29;20178;-76
2021/07/26 16:30:57;;;;;;;3.80;3.50;;;18.70;99.90;;;;;;4934073;29;20433;-77
2021/07/26 16:33:23;;;;;;;3.53;3.33;;;18.70;99.90;;;;;;4934278;29;20941;-78
2021/07/26 16:35:48;;;;;;;5.83;4.00;;;18.80;99.90;;;;;;4934191;29;20204;-77
2021/07/26 16:38:14;;;;;;;4.33;3.20;;;18.80;99.90;;;;;;4933088;29;20272;-77
2021/07/26 16:40:40;;;;;;;3.47;3.17;;;18.70;99.90;;;;;;4934219;29;20256;-76
2021/07/26 16:43:06;;;;;;;7.90;3.60;;;18.70;99.90;;;;;;4934323;29;20186;-77
2021/07/26 16:45:31;;;;;;;3.70;2.73;;;18.70;99.90;;;;;;4932911;29;20846;-78
2021/07/26 16:47:57;;;;;;;6.70;3.33;;;18.60;99.90;;;;;;4934382;29;20177;-76
2021/07/26 16:50:22;;;;;;;5.10;4.07;;;18.60;99.90;;;;;;4933174;29;20266;-78
2021/07/26 16:52:49;;;;;;;5.07;3.30;;;18.70;99.90;;;;;;4934175;29;20213;-78
2021/07/26 16:55:14;;;;;;;4.87;3.90;;;18.70;99.90;;;;;;4933334;29;20181;-78
2021/07/26 16:57:40;;;;;;;7.97;4.30;;;18.70;99.90;;;;;;4934087;29;20556;-78
2021/07/26 17:00:06;;;;;;;5.47;4.13;;;18.70;99.90;;;;;;4934296;29;20177;-77
2021/07/26 17:02:32;;;;;;;4.47;4.07;;;18.70;99.90;;;;;;4934399;29;20605;-77
2021/07/26 17:04:57;;;;;;;3.90;3.50;;;18.80;99.90;;;;;;4933889;29;20417;-77
2021/07/26 17:07:23;;;;;;;3.77;3.47;;;18.80;99.90;;;;;;4931248;29;20209;-77
2021/07/26 17:09:49;;;;;;;4.27;3.87;;;18.90;99.90;;;;;;4944153;29;20187;-77
2021/07/26 17:12:15;;;;;;;4.23;3.87;;;18.90;99.90;;;;;;4956938;28;20291;-77
2021/07/26 17:14:41;;;;;;;5.30;4.87;;;19.00;99.90;;;;;;4956732;28;20233;-76
2021/07/26 17:17:06;;;;;;;4.00;3.60;;;19.00;99.90;;;;;;4957284;28;20408;-76
2021/07/26 17:19:32;;;;;;;4.37;3.97;;;19.00;99.90;;;;;;4956406;28;20176;-76